Montemuro — CSYU4 — position and weather

sailwx.info

Track history (hours):
 
Tides and Currents Weather Stations Pressure Air Temp Water Temp Dewpoint Dewpoint Depression Visibility Wind Speed Wind Dir Waves Ship Positions

Montemuro

Last reported at 2017-Nov-23 08:25 UTC. Time now 2017-Nov-24 02:21 UTC.
Position N 38°42' W 009°10'.

Length 28 m; draft 4.2 m.

Type: Tug. MMSI: 263602560.

Date/timePositionNaut miles runAvg speedWind from/ knotsBaromVisibWave heightAir tempDewpointWater temp
2017-Nov-23 08:25N 38°42' W 009°10'0 0.0
2017-Nov-23 07:43N 38°42' W 009°10'0 0.0
2017-Nov-23 07:19N 38°42' W 009°10'  
2017-Nov-19 01:44N 38°42' W 009°10'1 1.5
2017-Nov-19 00:44N 38°42' W 009°08'0 1.6
2017-Nov-19 00:30N 38°42' W 009°08'0 0.3
2017-Nov-18 23:41N 38°42' W 009°08'0 1.9
2017-Nov-18 23:30N 38°42' W 009°09'0 0.0
2017-Nov-17 11:08N 38°42' W 009°09'2 7.9
2017-Nov-17 10:54N 38°41' W 009°07'2 5.8
2017-Nov-17 10:30N 38°41' W 009°04'0 0.4
2017-Nov-17 09:37N 38°41' W 009°04'1 5.3
2017-Nov-17 09:30N 38°41' W 009°04'4 0.2
2017-Nov-16 14:03N 38°42' W 009°09'2 7.7
2017-Nov-16 13:51N 38°41' W 009°08'3 9.1
2017-Nov-16 13:30N 38°41' W 009°04'1 1.4
2017-Nov-16 12:47N 38°41' W 009°05'3 7.0
2017-Nov-16 12:25N 38°41' W 009°08'1 1.5
2017-Nov-16 11:57N 38°42' W 009°09'  
Track history (hours):
 
Tides and Currents Weather Stations Pressure Air Temp Water Temp Dewpoint Dewpoint Depression Visibility Wind Speed Wind Dir Waves Ship Positions

Montemuro

Last reported at 2017-Nov-23 08:25 UTC. Time now 2017-Nov-24 02:21 UTC.
Position N 38°42' W 009°10'.

Length 28 m; draft 4.2 m.

Type: Tug. MMSI: 263602560.

Date/timePositionNaut miles runAvg speedWind from/ knotsBaromVisibWave heightAir tempDewpointWater temp
2017-Nov-23 08:25N 38°42' W 009°10'0 0.0
2017-Nov-23 07:43N 38°42' W 009°10'0 0.0
2017-Nov-23 07:19N 38°42' W 009°10'  
2017-Nov-19 01:44N 38°42' W 009°10'1 1.5
2017-Nov-19 00:44N 38°42' W 009°08'0 1.6
2017-Nov-19 00:30N 38°42' W 009°08'0 0.3
2017-Nov-18 23:41N 38°42' W 009°08'0 1.9
2017-Nov-18 23:30N 38°42' W 009°09'0 0.0
2017-Nov-17 11:08N 38°42' W 009°09'2 7.9
2017-Nov-17 10:54N 38°41' W 009°07'2 5.8
2017-Nov-17 10:30N 38°41' W 009°04'0 0.4
2017-Nov-17 09:37N 38°41' W 009°04'1 5.3
2017-Nov-17 09:30N 38°41' W 009°04'4 0.2
2017-Nov-16 14:03N 38°42' W 009°09'2 7.7
2017-Nov-16 13:51N 38°41' W 009°08'3 9.1
2017-Nov-16 13:30N 38°41' W 009°04'1 1.4
2017-Nov-16 12:47N 38°41' W 009°05'3 7.0
2017-Nov-16 12:25N 38°41' W 009°08'1 1.5
2017-Nov-16 11:57N 38°42' W 009°09'  

Dump ship's entire track history